sensor_id;sensor_type;location;lat;lon;timestamp;noise_LAeq;noise_LA_min;noise_LA_max;noise_LA01;noise_LA95
48967;Laerm;46511;53.148;8.204;2022-09-02T00:00:15;53.50;41.68;69.11;;
48967;Laerm;46511;53.148;8.204;2022-09-02T00:02:48;44.10;40.80;60.22;;
48967;Laerm;46511;53.148;8.204;2022-09-02T00:05:20;44.15;41.06;64.29;;
48967;Laerm;46511;53.148;8.204;2022-09-02T00:07:51;45.90;40.53;73.54;;
48967;Laerm;46511;53.148;8.204;2022-09-02T00:10:19;49.66;40.62;78.18;;
48967;Laerm;46511;53.148;8.204;2022-09-02T00:12:50;50.45;40.62;74.06;;
48967;Laerm;46511;53.148;8.204;2022-09-02T00:15:21;43.09;40.43;44.90;;
48967;Laerm;46511;53.148;8.204;2022-09-02T00:17:53;46.20;40.23;71.09;;
48967;Laerm;46511;53.148;8.204;2022-09-02T00:20:24;43.43;39.34;47.86;;
48967;Laerm;46511;53.148;8.204;2022-09-02T00:22:57;43.17;39.70;47.72;;
48967;Laerm;46511;53.148;8.204;2022-09-02T00:25:29;43.52;39.58;53.05;;
48967;Laerm;46511;53.148;8.204;2022-09-02T00:28:00;44.35;40.33;63.30;;
48967;Laerm;46511;53.148;8.204;2022-09-02T00:30:34;43.15;39.81;45.86;;
48967;Laerm;46511;53.148;8.204;2022-09-02T00:33:06;42.65;39.34;44.73;;
48967;Laerm;46511;53.148;8.204;2022-09-02T00:35:38;43.21;39.58;45.57;;
48967;Laerm;46511;53.148;8.204;2022-09-02T00:38:05;49.24;40.89;58.21;;
48967;Laerm;46511;53.148;8.204;2022-09-02T00:40:38;66.26;43.54;84.60;;
48967;Laerm;46511;53.148;8.204;2022-09-02T00:43:42;61.98;40.33;73.66;;
48967;Laerm;46511;53.148;8.204;2022-09-02T00:46:18;43.14;40.71;45.11;;
48967;Laerm;46511;53.148;8.204;2022-09-02T00:48:58;42.69;38.81;48.13;;
48967;Laerm;46511;53.148;8.204;2022-09-02T00:51:37;42.88;39.21;52.94;;
48967;Laerm;46511;53.148;8.204;2022-09-02T00:54:10;43.41;40.71;53.70;;
48967;Laerm;46511;53.148;8.204;2022-09-02T00:56:44;43.49;39.70;50.08;;
48967;Laerm;46511;53.148;8.204;2022-09-02T00:59:35;43.51;40.89;48.15;;
48967;Laerm;46511;53.148;8.204;2022-09-02T01:02:11;44.63;40.98;55.40;;
48967;Laerm;46511;53.148;8.204;2022-09-02T01:04:43;43.65;40.62;60.13;;
48967;Laerm;46511;53.148;8.204;2022-09-02T01:07:16;43.38;39.34;50.83;;
48967;Laerm;46511;53.148;8.204;2022-09-02T01:09:48;43.67;40.33;47.59;;
48967;Laerm;46511;53.148;8.204;2022-09-02T01:12:21;47.08;40.53;71.70;;
48967;Laerm;46511;53.148;8.204;2022-09-02T01:14:52;43.56;40.03;47.20;;
48967;Laerm;46511;53.148;8.204;2022-09-02T01:17:24;44.53;39.81;66.57;;
48967;Laerm;46511;53.148;8.204;2022-09-02T01:19:59;43.99;40.89;51.21;;
48967;Laerm;46511;53.148;8.204;2022-09-02T01:22:32;44.09;41.22;49.55;;
48967;Laerm;46511;53.148;8.204;2022-09-02T01:25:10;43.35;40.71;46.15;;
48967;Laerm;46511;53.148;8.204;2022-09-02T01:27:37;43.75;41.11;48.54;;
48967;Laerm;46511;53.148;8.204;2022-09-02T01:30:12;43.66;40.33;51.06;;
48967;Laerm;46511;53.148;8.204;2022-09-02T01:32:44;49.91;41.89;64.60;;
48967;Laerm;46511;53.148;8.204;2022-09-02T01:35:16;44.52;41.75;55.09;;
48967;Laerm;46511;53.148;8.204;2022-09-02T01:37:47;47.18;42.09;52.89;;
48967;Laerm;46511;53.148;8.204;2022-09-02T01:40:19;47.37;41.75;71.46;;
48967;Laerm;46511;53.148;8.204;2022-09-02T01:42:57;44.35;41.68;55.40;;
48967;Laerm;46511;53.148;8.204;2022-09-02T01:45:29;44.59;41.38;55.75;;
48967;Laerm;46511;53.148;8.204;2022-09-02T01:48:02;44.29;41.75;48.95;;
48967;Laerm;46511;53.148;8.204;2022-09-02T01:50:40;45.18;42.59;49.84;;
48967;Laerm;46511;53.148;8.204;2022-09-02T01:53:12;48.41;42.47;54.89;;
48967;Laerm;46511;53.148;8.204;2022-09-02T01:55:44;44.16;41.46;51.28;;
48967;Laerm;46511;53.148;8.204;2022-09-02T01:58:15;43.95;40.98;53.89;;
48967;Laerm;46511;53.148;8.204;2022-09-02T02:00:47;45.00;42.82;49.25;;
48967;Laerm;46511;53.148;8.204;2022-09-02T02:03:18;44.23;41.30;49.39;;
48967;Laerm;46511;53.148;8.204;2022-09-02T02:05:50;44.53;42.22;47.52;;
48967;Laerm;46511;53.148;8.204;2022-09-02T02:08:21;44.65;42.09;48.71;;
48967;Laerm;46511;53.148;8.204;2022-09-02T02:10:53;43.98;41.22;52.17;;
48967;Laerm;46511;53.148;8.204;2022-09-02T02:13:25;44.52;42.71;47.77;;
48967;Laerm;46511;53.148;8.204;2022-09-02T02:15:56;45.15;42.53;49.53;;
48967;Laerm;46511;53.148;8.204;2022-09-02T02:18:27;43.69;41.82;46.76;;
48967;Laerm;46511;53.148;8.204;2022-09-02T02:20:59;46.24;41.96;72.82;;
48967;Laerm;46511;53.148;8.204;2022-09-02T02:23:31;43.80;41.14;46.43;;
48967;Laerm;46511;53.148;8.204;2022-09-02T02:26:03;43.45;41.46;45.23;;
48967;Laerm;46511;53.148;8.204;2022-09-02T02:28:35;43.79;42.09;57.38;;
48967;Laerm;46511;53.148;8.204;2022-09-02T02:31:06;44.52;41.89;49.49;;
48967;Laerm;46511;53.148;8.204;2022-09-02T02:33:38;43.87;41.82;46.71;;
48967;Laerm;46511;53.148;8.204;2022-09-02T02:36:10;44.07;41.89;51.49;;
48967;Laerm;46511;53.148;8.204;2022-09-02T02:38:42;44.11;42.41;47.96;;
48967;Laerm;46511;53.148;8.204;2022-09-02T02:41:16;44.57;42.16;48.71;;
48967;Laerm;46511;53.148;8.204;2022-09-02T02:43:47;45.95;42.16;56.40;;
48967;Laerm;46511;53.148;8.204;2022-09-02T02:46:19;43.88;41.82;48.48;;
48967;Laerm;46511;53.148;8.204;2022-09-02T02:48:50;47.08;41.82;70.36;;
48967;Laerm;46511;53.148;8.204;2022-09-02T02:51:21;44.16;41.96;62.01;;
48967;Laerm;46511;53.148;8.204;2022-09-02T02:53:53;44.15;42.22;47.40;;
48967;Laerm;46511;53.148;8.204;2022-09-02T02:56:24;43.79;41.82;48.45;;
48967;Laerm;46511;53.148;8.204;2022-09-02T02:58:56;44.66;42.16;64.73;;
48967;Laerm;46511;53.148;8.204;2022-09-02T03:01:30;44.35;42.09;50.69;;
48967;Laerm;46511;53.148;8.204;2022-09-02T03:04:02;50.20;42.53;65.38;;
48967;Laerm;46511;53.148;8.204;2022-09-02T03:06:33;44.39;42.22;51.20;;
48967;Laerm;46511;53.148;8.204;2022-09-02T03:09:06;44.89;42.88;49.57;;
48967;Laerm;46511;53.148;8.204;2022-09-02T03:11:37;44.66;42.71;51.55;;
48967;Laerm;46511;53.148;8.204;2022-09-02T03:14:08;45.43;43.14;49.62;;
48967;Laerm;46511;53.148;8.204;2022-09-02T03:16:40;45.27;43.39;49.39;;
48967;Laerm;46511;53.148;8.204;2022-09-02T03:19:11;46.48;43.68;68.08;;
48967;Laerm;46511;53.148;8.204;2022-09-02T03:21:44;56.14;43.86;73.12;;
48967;Laerm;46511;53.148;8.204;2022-09-02T03:24:15;53.03;44.23;68.63;;
48967;Laerm;46511;53.148;8.204;2022-09-02T03:26:46;46.31;43.29;57.08;;
48967;Laerm;46511;53.148;8.204;2022-09-02T03:29:18;45.48;43.39;49.32;;
48967;Laerm;46511;53.148;8.204;2022-09-02T03:31:49;49.63;43.09;63.10;;
48967;Laerm;46511;53.148;8.204;2022-09-02T03:34:20;46.13;43.14;54.72;;
48967;Laerm;46511;53.148;8.204;2022-09-02T03:36:52;45.47;43.49;48.48;;
48967;Laerm;46511;53.148;8.204;2022-09-02T03:39:23;63.64;43.99;80.28;;
48967;Laerm;46511;53.148;8.204;2022-09-02T03:41:54;46.18;43.63;51.44;;
48967;Laerm;46511;53.148;8.204;2022-09-02T03:44:25;45.35;43.72;48.78;;
48967;Laerm;46511;53.148;8.204;2022-09-02T03:46:57;48.36;43.72;59.52;;
48967;Laerm;46511;53.148;8.204;2022-09-02T03:49:28;45.53;43.72;48.67;;
48967;Laerm;46511;53.148;8.204;2022-09-02T03:52:00;45.66;43.68;51.08;;
48967;Laerm;46511;53.148;8.204;2022-09-02T03:54:31;45.94;43.81;53.55;;
48967;Laerm;46511;53.148;8.204;2022-09-02T03:57:03;51.87;43.81;63.33;;
48967;Laerm;46511;53.148;8.204;2022-09-02T03:59:34;46.91;43.68;61.72;;
48967;Laerm;46511;53.148;8.204;2022-09-02T04:02:06;46.05;43.63;59.64;;
48967;Laerm;46511;53.148;8.204;2022-09-02T04:04:38;46.01;43.68;60.05;;
48967;Laerm;46511;53.148;8.204;2022-09-02T04:07:09;46.95;43.76;67.38;;
48967;Laerm;46511;53.148;8.204;2022-09-02T04:09:35;45.91;44.04;51.13;;
48967;Laerm;46511;53.148;8.204;2022-09-02T04:12:07;45.57;43.54;50.43;;
48967;Laerm;46511;53.148;8.204;2022-09-02T04:14:38;45.65;43.77;50.09;;
48967;Laerm;46511;53.148;8.204;2022-09-02T04:17:09;47.19;44.23;61.19;;
48967;Laerm;46511;53.148;8.204;2022-09-02T04:19:40;46.58;43.90;58.17;;
48967;Laerm;46511;53.148;8.204;2022-09-02T04:22:12;53.11;44.23;75.80;;
48967;Laerm;46511;53.148;8.204;2022-09-02T04:24:43;54.81;44.54;70.86;;
48967;Laerm;46511;53.148;8.204;2022-09-02T04:27:14;53.79;44.35;70.59;;
48967;Laerm;46511;53.148;8.204;2022-09-02T04:29:46;52.46;44.11;67.66;;
48967;Laerm;46511;53.148;8.204;2022-09-02T04:32:17;52.78;44.27;68.48;;
48967;Laerm;46511;53.148;8.204;2022-09-02T04:34:50;47.37;44.65;56.31;;
48967;Laerm;46511;53.148;8.204;2022-09-02T04:37:21;53.84;44.69;72.52;;
48967;Laerm;46511;53.148;8.204;2022-09-02T04:39:52;54.92;45.04;67.28;;
48967;Laerm;46511;53.148;8.204;2022-09-02T04:42:24;52.15;44.62;65.09;;
48967;Laerm;46511;53.148;8.204;2022-09-02T04:44:55;64.22;45.86;81.34;;
48967;Laerm;46511;53.148;8.204;2022-09-02T04:47:27;53.16;44.97;67.64;;
48967;Laerm;46511;53.148;8.204;2022-09-02T04:49:59;53.06;45.39;65.10;;
48967;Laerm;46511;53.148;8.204;2022-09-02T04:52:30;56.31;45.36;69.50;;
48967;Laerm;46511;53.148;8.204;2022-09-02T04:55:02;47.68;45.01;53.17;;
48967;Laerm;46511;53.148;8.204;2022-09-02T04:57:33;47.80;45.04;55.06;;
48967;Laerm;46511;53.148;8.204;2022-09-02T05:00:07;51.89;45.42;64.42;;
48967;Laerm;46511;53.148;8.204;2022-09-02T05:02:39;53.92;45.69;68.72;;
48967;Laerm;46511;53.148;8.204;2022-09-02T05:05:11;53.47;45.27;67.25;;
48967;Laerm;46511;53.148;8.204;2022-09-02T05:07:43;57.09;45.96;69.51;;
48967;Laerm;46511;53.148;8.204;2022-09-02T05:10:14;56.35;45.42;75.16;;
48967;Laerm;46511;53.148;8.204;2022-09-02T05:12:46;52.51;45.36;65.44;;
48967;Laerm;46511;53.148;8.204;2022-09-02T05:15:17;52.97;45.51;67.87;;
48967;Laerm;46511;53.148;8.204;2022-09-02T05:17:48;52.28;46.50;64.72;;
48967;Laerm;46511;53.148;8.204;2022-09-02T05:20:20;55.33;46.71;67.80;;
48967;Laerm;46511;53.148;8.204;2022-09-02T05:22:51;55.74;45.86;69.50;;
48967;Laerm;46511;53.148;8.204;2022-09-02T05:25:17;53.97;46.57;65.97;;
48967;Laerm;46511;53.148;8.204;2022-09-02T05:27:49;50.36;45.80;57.33;;
48967;Laerm;46511;53.148;8.204;2022-09-02T05:30:20;57.03;46.84;70.05;;
48967;Laerm;46511;53.148;8.204;2022-09-02T05:32:51;57.18;46.71;66.68;;
48967;Laerm;46511;53.148;8.204;2022-09-02T05:35:23;52.72;46.73;63.10;;
48967;Laerm;46511;53.148;8.204;2022-09-02T05:37:54;57.71;47.18;73.65;;
48967;Laerm;46511;53.148;8.204;2022-09-02T05:40:26;58.58;47.34;80.94;;
48967;Laerm;46511;53.148;8.204;2022-09-02T05:42:57;55.18;47.36;73.44;;
48967;Laerm;46511;53.148;8.204;2022-09-02T05:45:29;53.76;46.30;67.80;;
48967;Laerm;46511;53.148;8.204;2022-09-02T05:48:00;57.22;47.18;71.59;;
48967;Laerm;46511;53.148;8.204;2022-09-02T05:50:52;60.96;46.35;88.89;;
48967;Laerm;46511;53.148;8.204;2022-09-02T05:53:23;72.89;46.80;86.71;;
48967;Laerm;46511;53.148;8.204;2022-09-02T05:55:56;79.81;72.40;86.38;;
48967;Laerm;46511;53.148;8.204;2022-09-02T05:58:23;77.85;53.73;84.15;;
48967;Laerm;46511;53.148;8.204;2022-09-02T06:00:55;61.18;48.48;74.90;;
48967;Laerm;46511;53.148;8.204;2022-09-02T06:03:26;70.18;57.11;81.73;;
48967;Laerm;46511;53.148;8.204;2022-09-02T06:05:58;69.93;62.47;79.23;;
48967;Laerm;46511;53.148;8.204;2022-09-02T06:08:29;70.08;58.59;79.38;;
48967;Laerm;46511;53.148;8.204;2022-09-02T06:11:01;66.53;58.85;87.56;;
48967;Laerm;46511;53.148;8.204;2022-09-02T06:13:35;69.62;58.64;81.29;;
48967;Laerm;46511;53.148;8.204;2022-09-02T06:16:08;71.88;62.03;78.84;;
48967;Laerm;46511;53.148;8.204;2022-09-02T06:18:44;70.03;58.03;80.19;;
48967;Laerm;46511;53.148;8.204;2022-09-02T06:21:15;71.09;61.78;82.52;;
48967;Laerm;46511;53.148;8.204;2022-09-02T06:23:47;69.62;57.20;80.34;;
48967;Laerm;46511;53.148;8.204;2022-09-02T06:26:19;72.22;61.44;85.45;;
48967;Laerm;46511;53.148;8.204;2022-09-02T06:28:50;69.25;59.38;82.04;;
48967;Laerm;46511;53.148;8.204;2022-09-02T06:31:22;71.41;61.14;80.19;;
48967;Laerm;46511;53.148;8.204;2022-09-02T06:33:55;70.93;56.73;82.03;;
48967;Laerm;46511;53.148;8.204;2022-09-02T06:36:28;71.14;63.02;78.38;;
48967;Laerm;46511;53.148;8.204;2022-09-02T06:39:00;72.53;61.93;82.21;;
48967;Laerm;46511;53.148;8.204;2022-09-02T06:41:33;70.68;59.44;81.37;;
48967;Laerm;46511;53.148;8.204;2022-09-02T06:44:05;69.26;59.18;81.20;;
48967;Laerm;46511;53.148;8.204;2022-09-02T06:46:40;72.08;59.76;80.95;;
48967;Laerm;46511;53.148;8.204;2022-09-02T06:49:14;72.41;59.34;84.21;;
48967;Laerm;46511;53.148;8.204;2022-09-02T06:51:48;72.10;61.47;84.30;;
48967;Laerm;46511;53.148;8.204;2022-09-02T06:54:21;70.38;59.16;80.38;;
48967;Laerm;46511;53.148;8.204;2022-09-02T06:56:53;72.32;61.63;82.92;;
48967;Laerm;46511;53.148;8.204;2022-09-02T06:59:25;71.03;59.47;83.37;;
48967;Laerm;46511;53.148;8.204;2022-09-02T07:01:56;69.90;57.28;78.24;;
48967;Laerm;46511;53.148;8.204;2022-09-02T07:04:28;72.02;61.46;80.53;;
48967;Laerm;46511;53.148;8.204;2022-09-02T07:07:18;72.36;59.91;83.30;;
48967;Laerm;46511;53.148;8.204;2022-09-02T07:09:49;72.32;59.44;84.48;;
48967;Laerm;46511;53.148;8.204;2022-09-02T07:12:20;72.88;59.65;84.43;;
48967;Laerm;46511;53.148;8.204;2022-09-02T07:14:52;70.74;56.18;82.23;;
48967;Laerm;46511;53.148;8.204;2022-09-02T07:17:24;58.04;44.65;74.67;;
48967;Laerm;46511;53.148;8.204;2022-09-02T07:19:56;55.07;43.94;73.91;;
48967;Laerm;46511;53.148;8.204;2022-09-02T07:22:29;57.46;44.39;71.76;;
48967;Laerm;46511;53.148;8.204;2022-09-02T07:25:01;53.12;43.49;65.23;;
48967;Laerm;46511;53.148;8.204;2022-09-02T07:27:34;52.50;43.63;65.52;;
48967;Laerm;46511;53.148;8.204;2022-09-02T07:30:06;56.27;44.62;67.24;;
48967;Laerm;46511;53.148;8.204;2022-09-02T07:32:38;57.85;48.71;66.70;;
48967;Laerm;46511;53.148;8.204;2022-09-02T07:35:09;57.25;45.25;65.50;;
48967;Laerm;46511;53.148;8.204;2022-09-02T07:37:41;56.36;45.42;65.11;;
48967;Laerm;46511;53.148;8.204;2022-09-02T07:40:12;55.82;47.44;65.94;;
48967;Laerm;46511;53.148;8.204;2022-09-02T07:42:44;59.95;43.90;75.70;;
48967;Laerm;46511;53.148;8.204;2022-09-02T07:45:15;56.70;44.51;65.35;;
48967;Laerm;46511;53.148;8.204;2022-09-02T07:47:47;57.74;44.47;65.87;;
48967;Laerm;46511;53.148;8.204;2022-09-02T07:50:14;54.94;43.63;68.77;;
48967;Laerm;46511;53.148;8.204;2022-09-02T07:52:48;51.19;44.03;66.04;;
48967;Laerm;46511;53.148;8.204;2022-09-02T07:55:21;55.97;44.58;64.59;;
48967;Laerm;46511;53.148;8.204;2022-09-02T07:57:53;48.78;44.03;60.62;;
48967;Laerm;46511;53.148;8.204;2022-09-02T08:00:24;55.35;42.98;65.60;;
48967;Laerm;46511;53.148;8.204;2022-09-02T08:02:58;55.55;43.39;68.51;;
48967;Laerm;46511;53.148;8.204;2022-09-02T08:05:31;53.97;43.94;66.32;;
48967;Laerm;46511;53.148;8.204;2022-09-02T08:08:04;47.49;42.88;61.62;;
48967;Laerm;46511;53.148;8.204;2022-09-02T08:10:31;55.46;44.31;68.17;;
48967;Laerm;46511;53.148;8.204;2022-09-02T08:13:03;56.57;43.63;70.98;;
48967;Laerm;46511;53.148;8.204;2022-09-02T08:15:37;59.95;55.80;70.44;;
48967;Laerm;46511;53.148;8.204;2022-09-02T08:18:09;70.18;55.91;82.67;;
48967;Laerm;46511;53.148;8.204;2022-09-02T08:20:40;73.44;61.84;82.11;;
48967;Laerm;46511;53.148;8.204;2022-09-02T08:23:12;69.59;59.48;78.61;;
48967;Laerm;46511;53.148;8.204;2022-09-02T08:25:44;83.69;60.96;94.97;;
48967;Laerm;46511;53.148;8.204;2022-09-02T08:28:15;76.29;57.83;87.42;;
48967;Laerm;46511;53.148;8.204;2022-09-02T08:30:47;73.34;61.70;83.36;;
48967;Laerm;46511;53.148;8.204;2022-09-02T08:33:18;72.91;61.64;84.18;;
48967;Laerm;46511;53.148;8.204;2022-09-02T08:35:50;73.84;61.48;84.99;;
48967;Laerm;46511;53.148;8.204;2022-09-02T08:38:21;74.49;61.87;86.26;;
48967;Laerm;46511;53.148;8.204;2022-09-02T08:40:52;74.99;61.52;84.97;;
48967;Laerm;46511;53.148;8.204;2022-09-02T08:43:27;73.78;61.70;84.53;;
48967;Laerm;46511;53.148;8.204;2022-09-02T08:46:02;74.26;60.93;88.08;;
48967;Laerm;46511;53.148;8.204;2022-09-02T08:48:50;74.39;61.53;84.43;;
48967;Laerm;46511;53.148;8.204;2022-09-02T08:51:29;71.03;55.48;85.14;;
48967;Laerm;46511;53.148;8.204;2022-09-02T08:56:59;70.93;56.47;85.14;;
48967;Laerm;46511;53.148;8.204;2022-09-02T08:59:31;73.64;57.75;87.24;;
48967;Laerm;46511;53.148;8.204;2022-09-02T09:02:19;82.31;59.33;90.63;;
48967;Laerm;46511;53.148;8.204;2022-09-02T09:05:06;82.39;56.50;91.49;;
48967;Laerm;46511;53.148;8.204;2022-09-02T09:10:55;74.57;61.01;83.01;;
48967;Laerm;46511;53.148;8.204;2022-09-02T09:13:48;72.31;58.48;89.99;;
48967;Laerm;46511;53.148;8.204;2022-09-02T09:16:37;74.38;59.24;87.44;;
48967;Laerm;46511;53.148;8.204;2022-09-02T09:19:13;83.88;61.84;90.26;;
48967;Laerm;46511;53.148;8.204;2022-09-02T09:21:45;68.24;58.64;83.94;;
48967;Laerm;46511;53.148;8.204;2022-09-02T09:24:27;70.60;61.78;81.16;;
48967;Laerm;46511;53.148;8.204;2022-09-02T09:27:02;67.04;58.85;77.97;;
48967;Laerm;46511;53.148;8.204;2022-09-02T09:29:34;64.85;57.84;73.06;;
48967;Laerm;46511;53.148;8.204;2022-09-02T09:32:35;66.28;56.82;74.08;;
48967;Laerm;46511;53.148;8.204;2022-09-02T09:35:12;84.47;58.71;93.26;;
48967;Laerm;46511;53.148;8.204;2022-09-02T09:37:46;68.03;58.16;76.92;;
48967;Laerm;46511;53.148;8.204;2022-09-02T09:45:38;68.85;59.60;78.71;;
48967;Laerm;46511;53.148;8.204;2022-09-02T09:51:09;68.04;57.21;80.14;;
48967;Laerm;46511;53.148;8.204;2022-09-02T09:53:41;67.45;56.45;81.27;;
48967;Laerm;46511;53.148;8.204;2022-09-02T09:58:46;70.11;58.41;79.47;;
48967;Laerm;46511;53.148;8.204;2022-09-02T10:01:23;67.33;57.00;88.34;;
48967;Laerm;46511;53.148;8.204;2022-09-02T10:04:06;67.16;57.71;77.14;;
48967;Laerm;46511;53.148;8.204;2022-09-02T10:06:41;60.37;55.52;72.86;;
48967;Laerm;46511;53.148;8.204;2022-09-02T10:12:00;65.32;58.53;73.46;;
48967;Laerm;46511;53.148;8.204;2022-09-02T10:20:21;59.82;55.82;67.53;;
48967;Laerm;46511;53.148;8.204;2022-09-02T10:23:11;61.44;56.36;72.63;;
48967;Laerm;46511;53.148;8.204;2022-09-02T10:25:58;60.75;55.74;69.52;;
48967;Laerm;46511;53.148;8.204;2022-09-02T10:34:49;65.81;55.99;79.81;;
48967;Laerm;46511;53.148;8.204;2022-09-02T10:40:42;62.92;55.80;73.49;;
48967;Laerm;46511;53.148;8.204;2022-09-02T10:46:25;62.68;55.80;76.41;;
48967;Laerm;46511;53.148;8.204;2022-09-02T10:49:13;61.63;56.13;78.43;;
48967;Laerm;46511;53.148;8.204;2022-09-02T10:56:05;59.93;55.57;73.28;;
48967;Laerm;46511;53.148;8.204;2022-09-02T10:58:22;60.15;47.90;73.51;;
48967;Laerm;46511;53.148;8.204;2022-09-02T11:00:56;57.86;42.98;67.52;;
48967;Laerm;46511;53.148;8.204;2022-09-02T11:03:37;54.27;43.09;67.40;;
48967;Laerm;46511;53.148;8.204;2022-09-02T11:06:17;56.81;42.76;71.56;;
48967;Laerm;46511;53.148;8.204;2022-09-02T11:08:53;57.37;44.47;71.25;;
48967;Laerm;46511;53.148;8.204;2022-09-02T11:11:31;60.82;44.97;77.28;;
48967;Laerm;46511;53.148;8.204;2022-09-02T11:14:21;59.32;45.11;71.14;;
48967;Laerm;46511;53.148;8.204;2022-09-02T11:17:13;56.01;42.65;76.72;;
48967;Laerm;46511;53.148;8.204;2022-09-02T11:23:16;53.27;42.88;71.04;;
48967;Laerm;46511;53.148;8.204;2022-09-02T11:25:52;54.53;42.47;68.35;;
48967;Laerm;46511;53.148;8.204;2022-09-02T11:28:54;58.19;42.53;74.14;;
48967;Laerm;46511;53.148;8.204;2022-09-02T11:31:36;49.77;41.61;62.30;;
48967;Laerm;46511;53.148;8.204;2022-09-02T11:36:43;50.39;43.24;69.88;;
48967;Laerm;46511;53.148;8.204;2022-09-02T11:39:20;57.72;42.59;74.43;;
48967;Laerm;46511;53.148;8.204;2022-09-02T11:47:45;50.04;41.82;67.06;;
48967;Laerm;46511;53.148;8.204;2022-09-02T11:50:33;55.66;43.19;67.30;;
48967;Laerm;46511;53.148;8.204;2022-09-02T11:53:31;54.00;43.49;69.55;;
48967;Laerm;46511;53.148;8.204;2022-09-02T11:56:14;53.68;43.14;67.30;;
48967;Laerm;46511;53.148;8.204;2022-09-02T11:58:49;50.43;41.96;69.66;;
48967;Laerm;46511;53.148;8.204;2022-09-02T12:04:17;52.93;42.35;70.44;;
48967;Laerm;46511;53.148;8.204;2022-09-02T12:09:46;56.96;42.09;70.80;;
48967;Laerm;46511;53.148;8.204;2022-09-02T12:15:17;62.76;44.27;76.17;;
48967;Laerm;46511;53.148;8.204;2022-09-02T12:31:57;55.18;43.68;68.27;;
48967;Laerm;46511;53.148;8.204;2022-09-02T12:37:01;72.81;56.17;83.10;;
48967;Laerm;46511;53.148;8.204;2022-09-02T12:44:54;74.93;55.18;85.86;;
48967;Laerm;46511;53.148;8.204;2022-09-02T12:48:17;72.34;54.89;86.32;;
48967;Laerm;46511;53.148;8.204;2022-09-02T12:56:05;65.85;54.20;74.14;;
48967;Laerm;46511;53.148;8.204;2022-09-02T12:58:49;71.97;59.75;78.79;;
48967;Laerm;46511;53.148;8.204;2022-09-02T13:01:36;74.15;61.27;78.72;;
48967;Laerm;46511;53.148;8.204;2022-09-02T13:04:26;73.33;63.75;79.70;;
48967;Laerm;46511;53.148;8.204;2022-09-02T13:32:31;63.09;52.53;74.61;;
48967;Laerm;46511;53.148;8.204;2022-09-02T13:35:07;64.29;52.04;74.02;;
48967;Laerm;46511;53.148;8.204;2022-09-02T13:37:42;65.22;54.32;76.70;;
48967;Laerm;46511;53.148;8.204;2022-09-02T13:40:27;65.43;55.58;75.82;;
48967;Laerm;46511;53.148;8.204;2022-09-02T13:43:01;64.48;55.44;70.94;;
48967;Laerm;46511;53.148;8.204;2022-09-02T13:45:34;56.19;51.91;71.05;;
48967;Laerm;46511;53.148;8.204;2022-09-02T13:48:29;61.82;52.21;69.38;;
48967;Laerm;46511;53.148;8.204;2022-09-02T13:51:08;65.62;54.48;77.29;;
48967;Laerm;46511;53.148;8.204;2022-09-02T13:53:46;63.72;56.56;70.37;;
48967;Laerm;46511;53.148;8.204;2022-09-02T13:56:22;63.78;54.16;71.43;;
48967;Laerm;46511;53.148;8.204;2022-09-02T13:58:53;64.63;54.60;74.08;;
48967;Laerm;46511;53.148;8.204;2022-09-02T14:01:33;63.71;54.72;72.86;;
48967;Laerm;46511;53.148;8.204;2022-09-02T14:04:09;64.13;55.84;69.98;;
48967;Laerm;46511;53.148;8.204;2022-09-02T14:06:44;64.58;56.28;73.36;;
48967;Laerm;46511;53.148;8.204;2022-09-02T14:09:24;63.66;52.34;71.17;;
48967;Laerm;46511;53.148;8.204;2022-09-02T14:11:57;59.89;51.93;70.16;;
48967;Laerm;46511;53.148;8.204;2022-09-02T14:14:24;63.71;54.70;73.85;;
48967;Laerm;46511;53.148;8.204;2022-09-02T14:17:24;66.35;55.37;77.34;;
48967;Laerm;46511;53.148;8.204;2022-09-02T14:20:13;65.39;54.72;84.14;;
48967;Laerm;46511;53.148;8.204;2022-09-02T14:22:57;61.89;52.08;74.33;;
48967;Laerm;46511;53.148;8.204;2022-09-02T14:25:36;72.00;51.92;83.33;;
48967;Laerm;46511;53.148;8.204;2022-09-02T14:28:18;61.61;51.85;74.45;;
48967;Laerm;46511;53.148;8.204;2022-09-02T14:30:56;63.95;52.47;75.76;;
48967;Laerm;46511;53.148;8.204;2022-09-02T14:41:22;59.80;51.94;76.35;;
48967;Laerm;46511;53.148;8.204;2022-09-02T14:43:57;53.18;42.19;61.86;;
48967;Laerm;46511;53.148;8.204;2022-09-02T14:46:43;57.74;43.77;70.75;;
48967;Laerm;46511;53.148;8.204;2022-09-02T14:49:27;55.61;43.63;65.59;;
48967;Laerm;46511;53.148;8.204;2022-09-02T14:52:02;54.55;42.59;75.38;;
48967;Laerm;46511;53.148;8.204;2022-09-02T14:54:37;54.60;43.77;70.10;;
48967;Laerm;46511;53.148;8.204;2022-09-02T15:00:08;57.94;42.09;86.24;;
48967;Laerm;46511;53.148;8.204;2022-09-02T15:02:43;54.42;42.53;67.92;;
48967;Laerm;46511;53.148;8.204;2022-09-02T15:05:16;56.92;42.59;70.81;;
48967;Laerm;46511;53.148;8.204;2022-09-02T15:07:48;55.72;42.09;65.11;;
48967;Laerm;46511;53.148;8.204;2022-09-02T15:10:19;63.83;44.23;75.04;;
48967;Laerm;46511;53.148;8.204;2022-09-02T15:12:52;51.77;42.53;64.54;;
48967;Laerm;46511;53.148;8.204;2022-09-02T15:15:25;60.37;44.35;72.47;;
48967;Laerm;46511;53.148;8.204;2022-09-02T15:17:57;59.17;42.35;71.32;;
48967;Laerm;46511;53.148;8.204;2022-09-02T15:20:29;53.11;41.68;64.37;;
48967;Laerm;46511;53.148;8.204;2022-09-02T15:23:00;57.85;43.39;71.28;;
48967;Laerm;46511;53.148;8.204;2022-09-02T15:25:32;55.36;42.53;66.62;;
48967;Laerm;46511;53.148;8.204;2022-09-02T15:28:04;52.38;42.22;66.81;;
48967;Laerm;46511;53.148;8.204;2022-09-02T15:30:36;49.90;42.16;68.17;;
48967;Laerm;46511;53.148;8.204;2022-09-02T15:33:08;51.93;42.35;70.07;;
48967;Laerm;46511;53.148;8.204;2022-09-02T15:35:39;55.40;43.81;68.15;;
48967;Laerm;46511;53.148;8.204;2022-09-02T15:38:11;54.13;42.41;69.85;;
48967;Laerm;46511;53.148;8.204;2022-09-02T15:40:37;54.83;42.41;67.91;;
48967;Laerm;46511;53.148;8.204;2022-09-02T15:43:09;51.36;42.29;66.15;;
48967;Laerm;46511;53.148;8.204;2022-09-02T15:45:45;57.83;42.35;72.40;;
48967;Laerm;46511;53.148;8.204;2022-09-02T15:48:18;52.89;41.75;66.63;;
48967;Laerm;46511;53.148;8.204;2022-09-02T15:50:49;54.07;41.14;64.63;;
48967;Laerm;46511;53.148;8.204;2022-09-02T15:53:20;55.35;43.14;69.02;;
48967;Laerm;46511;53.148;8.204;2022-09-02T15:55:51;51.16;42.22;63.09;;
48967;Laerm;46511;53.148;8.204;2022-09-02T15:58:23;54.42;42.35;68.43;;
48967;Laerm;46511;53.148;8.204;2022-09-02T16:00:54;53.98;42.71;67.42;;
48967;Laerm;46511;53.148;8.204;2022-09-02T16:03:25;55.18;41.53;74.09;;
48967;Laerm;46511;53.148;8.204;2022-09-02T16:06:01;50.97;42.22;64.31;;
48967;Laerm;46511;53.148;8.204;2022-09-02T16:08:33;45.86;42.35;62.57;;
48967;Laerm;46511;53.148;8.204;2022-09-02T16:11:05;55.41;40.96;70.66;;
48967;Laerm;46511;53.148;8.204;2022-09-02T16:13:37;55.96;41.30;75.53;;
48967;Laerm;46511;53.148;8.204;2022-09-02T16:16:10;51.96;42.03;63.71;;
48967;Laerm;46511;53.148;8.204;2022-09-02T16:18:43;52.95;41.61;63.60;;
48967;Laerm;46511;53.148;8.204;2022-09-02T16:21:15;58.50;42.82;83.74;;
48967;Laerm;46511;53.148;8.204;2022-09-02T16:23:46;53.63;42.71;69.73;;
48967;Laerm;46511;53.148;8.204;2022-09-02T16:26:31;52.06;43.09;62.17;;
48967;Laerm;46511;53.148;8.204;2022-09-02T16:29:08;54.46;41.96;64.83;;